sensor_id;sensor_type;location;lat;lon;timestamp;P1;durP1;ratioP1;P2;durP2;ratioP2
40252;SDS011;25972;51.854;4.534;2023-06-14T00:01:21;3.20;;;1.90;;
40252;SDS011;25972;51.854;4.534;2023-06-14T00:03:47;2.80;;;1.60;;
40252;SDS011;25972;51.854;4.534;2023-06-14T00:06:15;3.88;;;2.20;;
40252;SDS011;25972;51.854;4.534;2023-06-14T00:08:41;2.75;;;1.48;;
40252;SDS011;25972;51.854;4.534;2023-06-14T00:11:07;3.63;;;1.70;;
40252;SDS011;25972;51.854;4.534;2023-06-14T00:13:33;3.60;;;1.83;;
40252;SDS011;25972;51.854;4.534;2023-06-14T00:15:59;4.95;;;2.03;;
40252;SDS011;25972;51.854;4.534;2023-06-14T00:18:25;3.75;;;1.90;;
40252;SDS011;25972;51.854;4.534;2023-06-14T00:20:54;2.13;;;1.50;;
40252;SDS011;25972;51.854;4.534;2023-06-14T00:23:22;3.42;;;1.88;;
40252;SDS011;25972;51.854;4.534;2023-06-14T00:25:48;3.10;;;1.70;;
40252;SDS011;25972;51.854;4.534;2023-06-14T00:28:14;3.53;;;1.80;;
40252;SDS011;25972;51.854;4.534;2023-06-14T00:30:42;5.05;;;1.98;;
40252;SDS011;25972;51.854;4.534;2023-06-14T00:33:11;3.95;;;1.80;;
40252;SDS011;25972;51.854;4.534;2023-06-14T00:35:37;4.45;;;1.75;;
40252;SDS011;25972;51.854;4.534;2023-06-14T00:38:03;3.28;;;1.70;;
40252;SDS011;25972;51.854;4.534;2023-06-14T00:40:31;4.90;;;1.90;;
40252;SDS011;25972;51.854;4.534;2023-06-14T00:42:57;4.22;;;2.08;;
40252;SDS011;25972;51.854;4.534;2023-06-14T00:45:23;7.85;;;2.00;;
40252;SDS011;25972;51.854;4.534;2023-06-14T00:47:49;3.88;;;1.92;;
40252;SDS011;25972;51.854;4.534;2023-06-14T00:50:17;6.38;;;1.73;;
40252;SDS011;25972;51.854;4.534;2023-06-14T00:52:45;4.00;;;1.90;;
40252;SDS011;25972;51.854;4.534;2023-06-14T00:55:11;6.60;;;2.00;;
40252;SDS011;25972;51.854;4.534;2023-06-14T00:57:39;6.82;;;2.10;;
40252;SDS011;25972;51.854;4.534;2023-06-14T01:00:06;7.18;;;1.95;;
40252;SDS011;25972;51.854;4.534;2023-06-14T01:02:34;5.55;;;1.90;;
40252;SDS011;25972;51.854;4.534;2023-06-14T01:05:01;4.70;;;2.03;;
40252;SDS011;25972;51.854;4.534;2023-06-14T01:07:30;7.53;;;2.17;;
40252;SDS011;25972;51.854;4.534;2023-06-14T01:10:09;4.65;;;2.33;;
40252;SDS011;25972;51.854;4.534;2023-06-14T01:12:50;5.20;;;1.58;;
40252;SDS011;25972;51.854;4.534;2023-06-14T01:15:32;4.20;;;1.90;;
40252;SDS011;25972;51.854;4.534;2023-06-14T01:18:01;5.97;;;2.20;;
40252;SDS011;25972;51.854;4.534;2023-06-14T01:20:31;4.10;;;1.98;;
40252;SDS011;25972;51.854;4.534;2023-06-14T01:23:04;3.67;;;1.73;;
40252;SDS011;25972;51.854;4.534;2023-06-14T01:25:30;4.50;;;1.90;;
40252;SDS011;25972;51.854;4.534;2023-06-14T01:27:57;3.13;;;1.90;;
40252;SDS011;25972;51.854;4.534;2023-06-14T01:30:26;4.80;;;2.10;;
40252;SDS011;25972;51.854;4.534;2023-06-14T01:32:54;5.65;;;1.92;;
40252;SDS011;25972;51.854;4.534;2023-06-14T01:35:21;2.90;;;1.70;;
40252;SDS011;25972;51.854;4.534;2023-06-14T01:37:48;5.82;;;2.10;;
40252;SDS011;25972;51.854;4.534;2023-06-14T01:40:16;5.00;;;1.88;;
40252;SDS011;25972;51.854;4.534;2023-06-14T01:42:43;5.40;;;2.13;;
40252;SDS011;25972;51.854;4.534;2023-06-14T01:45:13;4.78;;;1.77;;
40252;SDS011;25972;51.854;4.534;2023-06-14T01:47:40;3.80;;;1.73;;
40252;SDS011;25972;51.854;4.534;2023-06-14T01:50:08;4.88;;;2.00;;
40252;SDS011;25972;51.854;4.534;2023-06-14T01:52:36;3.03;;;1.65;;
40252;SDS011;25972;51.854;4.534;2023-06-14T01:55:02;4.45;;;2.10;;
40252;SDS011;25972;51.854;4.534;2023-06-14T01:57:31;3.55;;;1.70;;
40252;SDS011;25972;51.854;4.534;2023-06-14T01:59:58;4.82;;;2.00;;
40252;SDS011;25972;51.854;4.534;2023-06-14T02:02:24;4.13;;;1.65;;
40252;SDS011;25972;51.854;4.534;2023-06-14T02:04:52;4.05;;;1.98;;
40252;SDS011;25972;51.854;4.534;2023-06-14T02:07:22;3.75;;;2.10;;
40252;SDS011;25972;51.854;4.534;2023-06-14T02:09:50;7.07;;;2.00;;
40252;SDS011;25972;51.854;4.534;2023-06-14T02:12:17;4.07;;;2.10;;
40252;SDS011;25972;51.854;4.534;2023-06-14T02:14:44;4.32;;;1.92;;
40252;SDS011;25972;51.854;4.534;2023-06-14T02:17:11;3.80;;;1.73;;
40252;SDS011;25972;51.854;4.534;2023-06-14T02:19:37;4.35;;;2.13;;
40252;SDS011;25972;51.854;4.534;2023-06-14T02:22:04;3.90;;;1.75;;
40252;SDS011;25972;51.854;4.534;2023-06-14T02:24:30;4.55;;;1.95;;
40252;SDS011;25972;51.854;4.534;2023-06-14T02:26:57;7.50;;;2.50;;
40252;SDS011;25972;51.854;4.534;2023-06-14T02:29:23;5.57;;;1.90;;
40252;SDS011;25972;51.854;4.534;2023-06-14T02:31:51;5.28;;;2.17;;
40252;SDS011;25972;51.854;4.534;2023-06-14T02:34:21;3.70;;;2.00;;
40252;SDS011;25972;51.854;4.534;2023-06-14T02:36:47;3.60;;;1.90;;
40252;SDS011;25972;51.854;4.534;2023-06-14T02:39:13;7.47;;;2.17;;
40252;SDS011;25972;51.854;4.534;2023-06-14T02:41:42;4.15;;;2.00;;
40252;SDS011;25972;51.854;4.534;2023-06-14T02:44:09;3.22;;;1.83;;
40252;SDS011;25972;51.854;4.534;2023-06-14T02:46:37;6.65;;;2.15;;
40252;SDS011;25972;51.854;4.534;2023-06-14T02:49:04;2.70;;;1.63;;
40252;SDS011;25972;51.854;4.534;2023-06-14T02:51:30;4.55;;;1.75;;
40252;SDS011;25972;51.854;4.534;2023-06-14T02:53:56;5.65;;;1.77;;
40252;SDS011;25972;51.854;4.534;2023-06-14T02:56:24;5.00;;;2.00;;
40252;SDS011;25972;51.854;4.534;2023-06-14T02:58:51;6.53;;;2.13;;
40252;SDS011;25972;51.854;4.534;2023-06-14T03:01:20;5.53;;;1.65;;
40252;SDS011;25972;51.854;4.534;2023-06-14T03:03:48;4.70;;;1.95;;
40252;SDS011;25972;51.854;4.534;2023-06-14T03:06:16;3.28;;;1.80;;
40252;SDS011;25972;51.854;4.534;2023-06-14T03:08:44;4.45;;;1.95;;
40252;SDS011;25972;51.854;4.534;2023-06-14T03:11:14;5.60;;;2.00;;
40252;SDS011;25972;51.854;4.534;2023-06-14T03:13:40;4.88;;;2.25;;
40252;SDS011;25972;51.854;4.534;2023-06-14T03:16:07;3.42;;;1.75;;
40252;SDS011;25972;51.854;4.534;2023-06-14T03:18:37;3.22;;;1.73;;
40252;SDS011;25972;51.854;4.534;2023-06-14T03:21:05;4.13;;;1.90;;
40252;SDS011;25972;51.854;4.534;2023-06-14T03:23:33;4.68;;;1.98;;
40252;SDS011;25972;51.854;4.534;2023-06-14T03:26:01;3.72;;;2.17;;
40252;SDS011;25972;51.854;4.534;2023-06-14T03:28:27;5.47;;;2.05;;
40252;SDS011;25972;51.854;4.534;2023-06-14T03:30:55;5.07;;;2.25;;
40252;SDS011;25972;51.854;4.534;2023-06-14T03:33:22;6.50;;;2.40;;
40252;SDS011;25972;51.854;4.534;2023-06-14T03:35:48;4.75;;;2.08;;
40252;SDS011;25972;51.854;4.534;2023-06-14T03:38:15;3.67;;;1.80;;
40252;SDS011;25972;51.854;4.534;2023-06-14T03:40:43;4.03;;;2.03;;
40252;SDS011;25972;51.854;4.534;2023-06-14T03:43:09;3.85;;;2.03;;
40252;SDS011;25972;51.854;4.534;2023-06-14T03:45:36;4.22;;;1.88;;
40252;SDS011;25972;51.854;4.534;2023-06-14T03:48:02;4.15;;;1.90;;
40252;SDS011;25972;51.854;4.534;2023-06-14T03:50:31;5.75;;;2.03;;
40252;SDS011;25972;51.854;4.534;2023-06-14T03:52:57;4.78;;;1.90;;
40252;SDS011;25972;51.854;4.534;2023-06-14T03:55:24;4.03;;;2.05;;
40252;SDS011;25972;51.854;4.534;2023-06-14T03:57:54;4.97;;;2.10;;
40252;SDS011;25972;51.854;4.534;2023-06-14T04:00:21;6.55;;;2.13;;
40252;SDS011;25972;51.854;4.534;2023-06-14T04:02:47;3.63;;;1.73;;
40252;SDS011;25972;51.854;4.534;2023-06-14T04:05:13;4.90;;;1.92;;
40252;SDS011;25972;51.854;4.534;2023-06-14T04:07:46;4.25;;;2.00;;
40252;SDS011;25972;51.854;4.534;2023-06-14T04:10:14;4.95;;;1.95;;
40252;SDS011;25972;51.854;4.534;2023-06-14T04:12:41;4.90;;;2.00;;
40252;SDS011;25972;51.854;4.534;2023-06-14T04:15:09;5.03;;;2.10;;
40252;SDS011;25972;51.854;4.534;2023-06-14T04:17:36;7.22;;;2.15;;
40252;SDS011;25972;51.854;4.534;2023-06-14T04:20:04;3.75;;;2.05;;
40252;SDS011;25972;51.854;4.534;2023-06-14T04:22:33;3.88;;;1.70;;
40252;SDS011;25972;51.854;4.534;2023-06-14T04:25:00;4.25;;;2.15;;
40252;SDS011;25972;51.854;4.534;2023-06-14T04:27:26;4.68;;;1.70;;
40252;SDS011;25972;51.854;4.534;2023-06-14T04:29:53;2.78;;;1.70;;
40252;SDS011;25972;51.854;4.534;2023-06-14T04:32:26;3.78;;;2.10;;
40252;SDS011;25972;51.854;4.534;2023-06-14T04:34:53;4.75;;;1.80;;
40252;SDS011;25972;51.854;4.534;2023-06-14T04:37:20;4.40;;;2.03;;
40252;SDS011;25972;51.854;4.534;2023-06-14T04:39:46;5.68;;;1.90;;
40252;SDS011;25972;51.854;4.534;2023-06-14T04:42:13;8.82;;;2.40;;
40252;SDS011;25972;51.854;4.534;2023-06-14T04:44:41;4.15;;;2.10;;
40252;SDS011;25972;51.854;4.534;2023-06-14T04:47:09;3.45;;;1.88;;
40252;SDS011;25972;51.854;4.534;2023-06-14T04:49:39;6.50;;;2.05;;
40252;SDS011;25972;51.854;4.534;2023-06-14T04:52:06;4.72;;;1.73;;
40252;SDS011;25972;51.854;4.534;2023-06-14T04:54:37;3.50;;;1.73;;
40252;SDS011;25972;51.854;4.534;2023-06-14T04:57:04;4.35;;;1.83;;
40252;SDS011;25972;51.854;4.534;2023-06-14T04:59:31;3.97;;;1.90;;
40252;SDS011;25972;51.854;4.534;2023-06-14T05:01:59;3.47;;;1.83;;
40252;SDS011;25972;51.854;4.534;2023-06-14T05:04:25;2.83;;;1.80;;
40252;SDS011;25972;51.854;4.534;2023-06-14T05:06:53;4.78;;;1.90;;
40252;SDS011;25972;51.854;4.534;2023-06-14T05:09:22;4.45;;;2.00;;
40252;SDS011;25972;51.854;4.534;2023-06-14T05:11:49;4.20;;;1.70;;
40252;SDS011;25972;51.854;4.534;2023-06-14T05:14:16;4.95;;;1.88;;
40252;SDS011;25972;51.854;4.534;2023-06-14T05:16:45;6.47;;;2.20;;
40252;SDS011;25972;51.854;4.534;2023-06-14T05:19:13;5.00;;;1.60;;
40252;SDS011;25972;51.854;4.534;2023-06-14T05:21:39;4.10;;;1.90;;
40252;SDS011;25972;51.854;4.534;2023-06-14T05:24:07;3.42;;;1.92;;
40252;SDS011;25972;51.854;4.534;2023-06-14T05:26:34;5.38;;;1.92;;
40252;SDS011;25972;51.854;4.534;2023-06-14T05:29:00;4.05;;;1.88;;
40252;SDS011;25972;51.854;4.534;2023-06-14T05:31:26;3.13;;;1.77;;
40252;SDS011;25972;51.854;4.534;2023-06-14T05:33:54;3.65;;;1.83;;
40252;SDS011;25972;51.854;4.534;2023-06-14T05:36:20;4.00;;;2.10;;
40252;SDS011;25972;51.854;4.534;2023-06-14T05:38:47;2.83;;;1.60;;
40252;SDS011;25972;51.854;4.534;2023-06-14T05:41:15;4.90;;;2.05;;
40252;SDS011;25972;51.854;4.534;2023-06-14T05:43:40;3.75;;;2.10;;
40252;SDS011;25972;51.854;4.534;2023-06-14T05:46:07;4.85;;;2.08;;
40252;SDS011;25972;51.854;4.534;2023-06-14T05:48:33;4.05;;;1.83;;
40252;SDS011;25972;51.854;4.534;2023-06-14T05:50:59;4.18;;;1.98;;
40252;SDS011;25972;51.854;4.534;2023-06-14T05:53:25;6.75;;;2.08;;
40252;SDS011;25972;51.854;4.534;2023-06-14T05:55:51;2.75;;;1.65;;
40252;SDS011;25972;51.854;4.534;2023-06-14T05:58:21;6.60;;;1.90;;
40252;SDS011;25972;51.854;4.534;2023-06-14T06:00:47;4.22;;;2.10;;
40252;SDS011;25972;51.854;4.534;2023-06-14T06:03:13;5.28;;;1.98;;
40252;SDS011;25972;51.854;4.534;2023-06-14T06:05:39;6.35;;;1.85;;
40252;SDS011;25972;51.854;4.534;2023-06-14T06:08:06;3.65;;;1.83;;
40252;SDS011;25972;51.854;4.534;2023-06-14T06:10:32;5.18;;;2.30;;
40252;SDS011;25972;51.854;4.534;2023-06-14T06:12:58;4.38;;;2.00;;
40252;SDS011;25972;51.854;4.534;2023-06-14T06:15:25;4.55;;;2.20;;
40252;SDS011;25972;51.854;4.534;2023-06-14T06:17:51;3.97;;;1.73;;
40252;SDS011;25972;51.854;4.534;2023-06-14T06:20:17;3.53;;;1.80;;
40252;SDS011;25972;51.854;4.534;2023-06-14T06:22:43;5.38;;;1.90;;
40252;SDS011;25972;51.854;4.534;2023-06-14T06:25:09;4.13;;;2.08;;
40252;SDS011;25972;51.854;4.534;2023-06-14T06:27:35;5.47;;;2.00;;
40252;SDS011;25972;51.854;4.534;2023-06-14T06:30:03;2.30;;;1.52;;
40252;SDS011;25972;51.854;4.534;2023-06-14T06:32:32;7.03;;;2.03;;
40252;SDS011;25972;51.854;4.534;2023-06-14T06:34:58;3.05;;;1.85;;
40252;SDS011;25972;51.854;4.534;2023-06-14T06:37:25;7.03;;;2.20;;
40252;SDS011;25972;51.854;4.534;2023-06-14T06:39:51;4.10;;;1.92;;
40252;SDS011;25972;51.854;4.534;2023-06-14T06:42:17;5.30;;;2.30;;
40252;SDS011;25972;51.854;4.534;2023-06-14T06:44:43;4.32;;;1.88;;
40252;SDS011;25972;51.854;4.534;2023-06-14T06:47:09;4.05;;;1.85;;
40252;SDS011;25972;51.854;4.534;2023-06-14T06:49:37;7.25;;;2.00;;
40252;SDS011;25972;51.854;4.534;2023-06-14T06:52:04;3.45;;;1.90;;
40252;SDS011;25972;51.854;4.534;2023-06-14T06:54:32;4.85;;;2.00;;
40252;SDS011;25972;51.854;4.534;2023-06-14T06:56:59;3.58;;;1.83;;
40252;SDS011;25972;51.854;4.534;2023-06-14T06:59:26;4.72;;;2.25;;
40252;SDS011;25972;51.854;4.534;2023-06-14T07:01:52;2.53;;;1.60;;
40252;SDS011;25972;51.854;4.534;2023-06-14T07:04:18;5.25;;;2.28;;
40252;SDS011;25972;51.854;4.534;2023-06-14T07:06:46;5.70;;;2.40;;
40252;SDS011;25972;51.854;4.534;2023-06-14T07:09:13;4.22;;;2.25;;
40252;SDS011;25972;51.854;4.534;2023-06-14T07:11:40;8.25;;;2.30;;
40252;SDS011;25972;51.854;4.534;2023-06-14T07:14:06;3.50;;;2.03;;
40252;SDS011;25972;51.854;4.534;2023-06-14T07:16:33;5.03;;;2.55;;
40252;SDS011;25972;51.854;4.534;2023-06-14T07:18:59;5.40;;;2.05;;
40252;SDS011;25972;51.854;4.534;2023-06-14T07:21:26;4.20;;;2.08;;
40252;SDS011;25972;51.854;4.534;2023-06-14T07:23:53;3.70;;;2.00;;
40252;SDS011;25972;51.854;4.534;2023-06-14T07:26:19;8.13;;;2.30;;
40252;SDS011;25972;51.854;4.534;2023-06-14T07:28:46;4.90;;;2.35;;
40252;SDS011;25972;51.854;4.534;2023-06-14T07:31:12;4.97;;;1.98;;
40252;SDS011;25972;51.854;4.534;2023-06-14T07:33:39;3.83;;;2.05;;
40252;SDS011;25972;51.854;4.534;2023-06-14T07:36:06;7.60;;;2.60;;
40252;SDS011;25972;51.854;4.534;2023-06-14T07:38:39;6.28;;;2.10;;
40252;SDS011;25972;51.854;4.534;2023-06-14T07:41:07;6.82;;;2.40;;
40252;SDS011;25972;51.854;4.534;2023-06-14T07:43:33;3.78;;;1.85;;
40252;SDS011;25972;51.854;4.534;2023-06-14T07:46:01;5.80;;;2.05;;
40252;SDS011;25972;51.854;4.534;2023-06-14T07:48:28;6.85;;;2.22;;
40252;SDS011;25972;51.854;4.534;2023-06-14T07:50:54;5.10;;;2.20;;
40252;SDS011;25972;51.854;4.534;2023-06-14T07:53:20;4.57;;;2.22;;
40252;SDS011;25972;51.854;4.534;2023-06-14T07:55:46;3.83;;;2.08;;
40252;SDS011;25972;51.854;4.534;2023-06-14T07:58:15;5.50;;;2.53;;
40252;SDS011;25972;51.854;4.534;2023-06-14T08:00:41;4.45;;;2.13;;
40252;SDS011;25972;51.854;4.534;2023-06-14T08:03:08;4.72;;;2.60;;
40252;SDS011;25972;51.854;4.534;2023-06-14T08:05:34;3.75;;;1.80;;
40252;SDS011;25972;51.854;4.534;2023-06-14T08:08:04;3.75;;;1.88;;
40252;SDS011;25972;51.854;4.534;2023-06-14T08:10:34;4.75;;;2.13;;
40252;SDS011;25972;51.854;4.534;2023-06-14T08:13:00;6.13;;;2.30;;
40252;SDS011;25972;51.854;4.534;2023-06-14T08:15:27;4.32;;;2.05;;
40252;SDS011;25972;51.854;4.534;2023-06-14T08:17:54;5.35;;;2.05;;
40252;SDS011;25972;51.854;4.534;2023-06-14T08:22:52;5.35;;;2.40;;
40252;SDS011;25972;51.854;4.534;2023-06-14T08:25:21;3.85;;;2.20;;
40252;SDS011;25972;51.854;4.534;2023-06-14T08:27:48;4.93;;;1.92;;
40252;SDS011;25972;51.854;4.534;2023-06-14T08:30:15;3.55;;;2.10;;
40252;SDS011;25972;51.854;4.534;2023-06-14T08:32:43;4.55;;;1.90;;
40252;SDS011;25972;51.854;4.534;2023-06-14T08:35:10;5.28;;;2.10;;
40252;SDS011;25972;51.854;4.534;2023-06-14T08:37:41;5.75;;;2.70;;
40252;SDS011;25972;51.854;4.534;2023-06-14T08:40:09;5.35;;;2.13;;
40252;SDS011;25972;51.854;4.534;2023-06-14T08:42:45;6.53;;;2.03;;
40252;SDS011;25972;51.854;4.534;2023-06-14T08:45:15;5.70;;;1.95;;
40252;SDS011;25972;51.854;4.534;2023-06-14T08:47:41;4.25;;;2.28;;
40252;SDS011;25972;51.854;4.534;2023-06-14T08:50:09;4.72;;;2.35;;
40252;SDS011;25972;51.854;4.534;2023-06-14T08:52:37;6.55;;;1.98;;
40252;SDS011;25972;51.854;4.534;2023-06-14T08:55:15;3.90;;;2.05;;
40252;SDS011;25972;51.854;4.534;2023-06-14T08:57:42;3.05;;;1.88;;
40252;SDS011;25972;51.854;4.534;2023-06-14T09:00:11;5.13;;;2.08;;
40252;SDS011;25972;51.854;4.534;2023-06-14T09:02:41;2.65;;;1.70;;
40252;SDS011;25972;51.854;4.534;2023-06-14T09:05:10;3.45;;;1.60;;
40252;SDS011;25972;51.854;4.534;2023-06-14T09:07:38;4.55;;;1.90;;
40252;SDS011;25972;51.854;4.534;2023-06-14T09:10:09;3.38;;;1.83;;
40252;SDS011;25972;51.854;4.534;2023-06-14T09:12:36;7.15;;;2.40;;
40252;SDS011;25972;51.854;4.534;2023-06-14T09:15:06;5.45;;;1.95;;
40252;SDS011;25972;51.854;4.534;2023-06-14T09:17:38;5.13;;;2.00;;
40252;SDS011;25972;51.854;4.534;2023-06-14T09:20:05;4.45;;;2.20;;
40252;SDS011;25972;51.854;4.534;2023-06-14T09:22:37;3.13;;;1.80;;
40252;SDS011;25972;51.854;4.534;2023-06-14T09:25:04;5.28;;;1.95;;
40252;SDS011;25972;51.854;4.534;2023-06-14T09:27:32;2.90;;;1.83;;
40252;SDS011;25972;51.854;4.534;2023-06-14T09:29:59;5.70;;;2.15;;
40252;SDS011;25972;51.854;4.534;2023-06-14T09:32:25;5.65;;;2.10;;
40252;SDS011;25972;51.854;4.534;2023-06-14T09:34:52;4.18;;;2.15;;
40252;SDS011;25972;51.854;4.534;2023-06-14T09:37:27;3.65;;;1.85;;
40252;SDS011;25972;51.854;4.534;2023-06-14T09:39:56;5.82;;;1.98;;
40252;SDS011;25972;51.854;4.534;2023-06-14T09:42:22;4.90;;;1.98;;
40252;SDS011;25972;51.854;4.534;2023-06-14T09:44:51;2.72;;;1.63;;
40252;SDS011;25972;51.854;4.534;2023-06-14T09:47:19;6.60;;;2.00;;
40252;SDS011;25972;51.854;4.534;2023-06-14T09:49:46;3.10;;;1.70;;
40252;SDS011;25972;51.854;4.534;2023-06-14T09:52:14;2.70;;;1.77;;
40252;SDS011;25972;51.854;4.534;2023-06-14T09:54:42;3.75;;;1.83;;
40252;SDS011;25972;51.854;4.534;2023-06-14T09:57:10;2.45;;;1.70;;
40252;SDS011;25972;51.854;4.534;2023-06-14T09:59:39;6.20;;;2.00;;
40252;SDS011;25972;51.854;4.534;2023-06-14T10:02:10;3.40;;;1.88;;
40252;SDS011;25972;51.854;4.534;2023-06-14T10:04:53;3.63;;;1.70;;
40252;SDS011;25972;51.854;4.534;2023-06-14T10:07:26;2.22;;;1.65;;
40252;SDS011;25972;51.854;4.534;2023-06-14T10:09:55;4.10;;;1.85;;
40252;SDS011;25972;51.854;4.534;2023-06-14T10:12:24;3.40;;;1.85;;
40252;SDS011;25972;51.854;4.534;2023-06-14T10:14:51;2.05;;;1.30;;
40252;SDS011;25972;51.854;4.534;2023-06-14T10:17:22;2.92;;;1.48;;
40252;SDS011;25972;51.854;4.534;2023-06-14T10:19:57;3.95;;;1.75;;
40252;SDS011;25972;51.854;4.534;2023-06-14T10:22:38;2.42;;;1.38;;
40252;SDS011;25972;51.854;4.534;2023-06-14T10:25:12;3.88;;;1.42;;
40252;SDS011;25972;51.854;4.534;2023-06-14T10:27:41;5.15;;;1.50;;
40252;SDS011;25972;51.854;4.534;2023-06-14T10:30:11;2.67;;;1.50;;
40252;SDS011;25972;51.854;4.534;2023-06-14T10:35:38;4.72;;;1.60;;
40252;SDS011;25972;51.854;4.534;2023-06-14T10:38:07;3.00;;;1.50;;
40252;SDS011;25972;51.854;4.534;2023-06-14T10:40:34;1.83;;;1.15;;
40252;SDS011;25972;51.854;4.534;2023-06-14T10:43:15;2.65;;;1.38;;
40252;SDS011;25972;51.854;4.534;2023-06-14T10:48:42;4.35;;;1.17;;
40252;SDS011;25972;51.854;4.534;2023-06-14T10:51:15;2.00;;;1.30;;
40252;SDS011;25972;51.854;4.534;2023-06-14T10:53:45;2.55;;;1.20;;
40252;SDS011;25972;51.854;4.534;2023-06-14T10:56:22;1.80;;;1.17;;
40252;SDS011;25972;51.854;4.534;2023-06-14T10:58:54;1.27;;;0.90;;
40252;SDS011;25972;51.854;4.534;2023-06-14T11:01:23;4.45;;;1.10;;
40252;SDS011;25972;51.854;4.534;2023-06-14T11:04:00;1.30;;;1.10;;
40252;SDS011;25972;51.854;4.534;2023-06-14T11:06:44;3.72;;;0.95;;
40252;SDS011;25972;51.854;4.534;2023-06-14T11:09:30;3.20;;;1.50;;
40252;SDS011;25972;51.854;4.534;2023-06-14T11:12:15;2.55;;;1.38;;
40252;SDS011;25972;51.854;4.534;2023-06-14T11:14:46;4.22;;;1.27;;
40252;SDS011;25972;51.854;4.534;2023-06-14T11:17:13;2.10;;;1.30;;
40252;SDS011;25972;51.854;4.534;2023-06-14T11:19:39;2.70;;;1.20;;
40252;SDS011;25972;51.854;4.534;2023-06-14T11:22:05;1.75;;;1.08;;
40252;SDS011;25972;51.854;4.534;2023-06-14T11:24:35;2.67;;;1.15;;
40252;SDS011;25972;51.854;4.534;2023-06-14T11:27:04;2.67;;;1.10;;
40252;SDS011;25972;51.854;4.534;2023-06-14T11:29:34;1.00;;;0.95;;
40252;SDS011;25972;51.854;4.534;2023-06-14T11:32:08;1.50;;;0.80;;
40252;SDS011;25972;51.854;4.534;2023-06-14T11:34:37;2.13;;;1.02;;
40252;SDS011;25972;51.854;4.534;2023-06-14T11:37:04;2.35;;;1.10;;
40252;SDS011;25972;51.854;4.534;2023-06-14T11:39:36;2.00;;;1.10;;
40252;SDS011;25972;51.854;4.534;2023-06-14T11:42:05;2.20;;;0.90;;
40252;SDS011;25972;51.854;4.534;2023-06-14T11:44:33;1.67;;;1.05;;
40252;SDS011;25972;51.854;4.534;2023-06-14T11:47:03;3.15;;;1.00;;
40252;SDS011;25972;51.854;4.534;2023-06-14T11:49:31;2.08;;;1.17;;
40252;SDS011;25972;51.854;4.534;2023-06-14T11:52:01;1.70;;;1.35;;
40252;SDS011;25972;51.854;4.534;2023-06-14T11:54:27;1.95;;;1.00;;
40252;SDS011;25972;51.854;4.534;2023-06-14T11:56:54;1.27;;;1.00;;
40252;SDS011;25972;51.854;4.534;2023-06-14T11:59:20;4.70;;;1.13;;
40252;SDS011;25972;51.854;4.534;2023-06-14T12:01:47;2.05;;;1.20;;
40252;SDS011;25972;51.854;4.534;2023-06-14T12:04:13;2.97;;;1.23;;
40252;SDS011;25972;51.854;4.534;2023-06-14T12:06:41;1.35;;;0.98;;
40252;SDS011;25972;51.854;4.534;2023-06-14T12:09:08;1.40;;;1.10;;
40252;SDS011;25972;51.854;4.534;2023-06-14T12:11:42;1.17;;;0.80;;
40252;SDS011;25972;51.854;4.534;2023-06-14T12:14:08;2.42;;;1.17;;
40252;SDS011;25972;51.854;4.534;2023-06-14T12:16:36;2.33;;;1.20;;
40252;SDS011;25972;51.854;4.534;2023-06-14T12:19:11;1.80;;;1.10;;
40252;SDS011;25972;51.854;4.534;2023-06-14T12:21:40;2.72;;;0.95;;
40252;SDS011;25972;51.854;4.534;2023-06-14T12:24:08;2.08;;;1.27;;
40252;SDS011;25972;51.854;4.534;2023-06-14T12:26:38;1.30;;;1.10;;
40252;SDS011;25972;51.854;4.534;2023-06-14T12:29:06;1.77;;;1.00;;
40252;SDS011;25972;51.854;4.534;2023-06-14T12:31:38;1.20;;;0.68;;
40252;SDS011;25972;51.854;4.534;2023-06-14T12:34:04;2.47;;;1.30;;
40252;SDS011;25972;51.854;4.534;2023-06-14T12:36:31;2.90;;;1.40;;
40252;SDS011;25972;51.854;4.534;2023-06-14T12:38:59;1.95;;;1.23;;
40252;SDS011;25972;51.854;4.534;2023-06-14T12:41:25;2.08;;;1.08;;
40252;SDS011;25972;51.854;4.534;2023-06-14T12:43:52;1.88;;;1.10;;
40252;SDS011;25972;51.854;4.534;2023-06-14T12:46:18;1.67;;;1.10;;
40252;SDS011;25972;51.854;4.534;2023-06-14T12:48:44;1.80;;;1.02;;
40252;SDS011;25972;51.854;4.534;2023-06-14T12:51:11;1.65;;;1.15;;
40252;SDS011;25972;51.854;4.534;2023-06-14T12:53:39;1.80;;;1.13;;
40252;SDS011;25972;51.854;4.534;2023-06-14T12:56:08;2.17;;;1.38;;
40252;SDS011;25972;51.854;4.534;2023-06-14T12:58:34;1.58;;;1.08;;
40252;SDS011;25972;51.854;4.534;2023-06-14T13:01:00;3.13;;;1.27;;
40252;SDS011;25972;51.854;4.534;2023-06-14T13:03:26;4.05;;;1.27;;
40252;SDS011;25972;51.854;4.534;2023-06-14T13:05:53;3.33;;;1.30;;
40252;SDS011;25972;51.854;4.534;2023-06-14T13:08:19;2.38;;;1.30;;
40252;SDS011;25972;51.854;4.534;2023-06-14T13:10:48;2.00;;;1.10;;
40252;SDS011;25972;51.854;4.534;2023-06-14T13:13:18;2.08;;;1.40;;
40252;SDS011;25972;51.854;4.534;2023-06-14T13:15:45;1.58;;;1.10;;
40252;SDS011;25972;51.854;4.534;2023-06-14T13:18:11;3.58;;;1.33;;
40252;SDS011;25972;51.854;4.534;2023-06-14T13:20:40;1.52;;;1.00;;
40252;SDS011;25972;51.854;4.534;2023-06-14T13:23:07;3.13;;;1.15;;
40252;SDS011;25972;51.854;4.534;2023-06-14T13:25:35;1.98;;;1.20;;
40252;SDS011;25972;51.854;4.534;2023-06-14T13:28:02;5.10;;;1.40;;
40252;SDS011;25972;51.854;4.534;2023-06-14T13:30:31;2.50;;;1.15;;
40252;SDS011;25972;51.854;4.534;2023-06-14T13:32:57;2.47;;;1.10;;
40252;SDS011;25972;51.854;4.534;2023-06-14T13:35:24;3.15;;;1.23;;
40252;SDS011;25972;51.854;4.534;2023-06-14T13:37:51;1.90;;;1.05;;
40252;SDS011;25972;51.854;4.534;2023-06-14T13:40:17;2.15;;;1.50;;
40252;SDS011;25972;51.854;4.534;2023-06-14T13:42:43;2.78;;;1.23;;
40252;SDS011;25972;51.854;4.534;2023-06-14T13:45:10;1.63;;;0.95;;
40252;SDS011;25972;51.854;4.534;2023-06-14T13:47:45;2.20;;;1.27;;
40252;SDS011;25972;51.854;4.534;2023-06-14T13:50:13;1.60;;;1.10;;
40252;SDS011;25972;51.854;4.534;2023-06-14T13:52:41;2.92;;;1.15;;
40252;SDS011;25972;51.854;4.534;2023-06-14T13:55:07;3.60;;;1.40;;
40252;SDS011;25972;51.854;4.534;2023-06-14T13:57:34;1.25;;;1.10;;
40252;SDS011;25972;51.854;4.534;2023-06-14T14:00:00;2.95;;;1.23;;
40252;SDS011;25972;51.854;4.534;2023-06-14T14:02:38;1.48;;;0.90;;
40252;SDS011;25972;51.854;4.534;2023-06-14T14:05:09;3.65;;;1.30;;
40252;SDS011;25972;51.854;4.534;2023-06-14T14:07:35;2.85;;;1.50;;
40252;SDS011;25972;51.854;4.534;2023-06-14T14:10:03;1.30;;;1.13;;
40252;SDS011;25972;51.854;4.534;2023-06-14T14:12:29;3.47;;;1.75;;
40252;SDS011;25972;51.854;4.534;2023-06-14T14:14:55;1.48;;;0.90;;
40252;SDS011;25972;51.854;4.534;2023-06-14T14:17:21;2.92;;;1.35;;
40252;SDS011;25972;51.854;4.534;2023-06-14T14:19:48;2.60;;;1.25;;
40252;SDS011;25972;51.854;4.534;2023-06-14T14:22:15;1.45;;;0.88;;
40252;SDS011;25972;51.854;4.534;2023-06-14T14:24:41;2.50;;;1.58;;
40252;SDS011;25972;51.854;4.534;2023-06-14T14:27:10;1.83;;;1.20;;
40252;SDS011;25972;51.854;4.534;2023-06-14T14:29:37;2.08;;;1.00;;
40252;SDS011;25972;51.854;4.534;2023-06-14T14:32:03;2.25;;;1.42;;
40252;SDS011;25972;51.854;4.534;2023-06-14T14:34:30;3.65;;;1.45;;
40252;SDS011;25972;51.854;4.534;2023-06-14T14:36:57;2.08;;;1.10;;
40252;SDS011;25972;51.854;4.534;2023-06-14T14:39:25;2.28;;;1.13;;
40252;SDS011;25972;51.854;4.534;2023-06-14T14:41:51;3.70;;;1.10;;
40252;SDS011;25972;51.854;4.534;2023-06-14T14:44:17;4.30;;;1.52;;
40252;SDS011;25972;51.854;4.534;2023-06-14T14:46:44;3.08;;;1.48;;
40252;SDS011;25972;51.854;4.534;2023-06-14T14:49:10;1.63;;;1.10;;
40252;SDS011;25972;51.854;4.534;2023-06-14T14:51:36;2.40;;;1.25;;
40252;SDS011;25972;51.854;4.534;2023-06-14T14:54:03;2.72;;;1.40;;
40252;SDS011;25972;51.854;4.534;2023-06-14T14:56:32;3.40;;;1.27;;
40252;SDS011;25972;51.854;4.534;2023-06-14T14:59:00;3.60;;;1.48;;
40252;SDS011;25972;51.854;4.534;2023-06-14T15:01:26;2.15;;;1.38;;